Wetterdaten: Woche 20.09.10 - 26.09.10 (KW38)
Datum Zeit Temp. Innen Temp. Aussen UV X Diff Temp. Feuchte Inne Feuchte Auss Sonnenschein Luftdruck Regen ab 0,1 Wind Sonnenschein T Regendauer Windben
20.09.2010 00:00 17,8 C 13,6 C 0,1 UV-I 0,0 C 60 % 80 % 0 % 1015,3 hPa 0,0 l/m 1,7 km/h (1 Bft) 0,00 h 0,00 h 4,3 km/h (1 Bft)
20.09.2010 01:00 17,8 C 13,4 C 0,1 UV-I 0,0 C 60 % 81 % 0 % 1014,7 hPa 0,0 l/m 1,0 km/h (0 Bft) 0,00 h 0,00 h 2,6 km/h (1 Bft)
20.09.2010 02:00 17,7 C 12,8 C 0,1 UV-I 0,0 C 60 % 82 % 0 % 1014,5 hPa 0,0 l/m 0,3 km/h (0 Bft) 0,00 h 0,00 h 0,6 km/h (0 Bft)
20.09.2010 03:00 17,5 C 11,8 C 0,1 UV-I 0,0 C 61 % 84 % 0 % 1014,5 hPa 0,0 l/m 0,2 km/h (0 Bft) 0,00 h 0,13 h 0,5 km/h (0 Bft)
20.09.2010 04:00 17,3 C 11,3 C 0,1 UV-I 0,0 C 60 % 85 % 0 % 1014,3 hPa 0,0 l/m 0,5 km/h (0 Bft) 0,00 h 0,20 h 1,9 km/h (1 Bft)
20.09.2010 05:00 17,2 C 11,6 C 0,1 UV-I 0,0 C 59 % 84 % 0 % 1014,1 hPa 0,0 l/m 0,5 km/h (0 Bft) 0,00 h 0,13 h 1,5 km/h (1 Bft)
20.09.2010 06:00 17,2 C 11,6 C 0,1 UV-I 0,0 C 59 % 83 % 0 % 1013,9 hPa 0,0 l/m 1,1 km/h (0 Bft) 0,00 h 0,17 h 3,2 km/h (1 Bft)
20.09.2010 07:00 17,1 C 10,9 C 0,2 UV-I 0,0 C 59 % 85 % 0 % 1014,0 hPa 0,0 l/m 0,9 km/h (0 Bft) 0,00 h 0,17 h 1,6 km/h (1 Bft)
20.09.2010 08:00 17,0 C 11,1 C 0,7 UV-I 0,1 C 60 % 86 % 2 % 1014,4 hPa 0,0 l/m 1,0 km/h (0 Bft) 0,00 h 0,03 h 2,4 km/h (1 Bft)
20.09.2010 09:00 17,2 C 12,7 C 1,2 UV-I 0,6 C 58 % 79 % 18 % 1014,5 hPa 0,0 l/m 2,7 km/h (1 Bft) 0,00 h 0,00 h 5,3 km/h (1 Bft)
20.09.2010 10:00 17,5 C 14,4 C 3,0 UV-I 3,4 C 57 % 72 % 89 % 1014,7 hPa 0,0 l/m 4,0 km/h (1 Bft) 0,83 h 0,00 h 6,7 km/h (2 Bft)
20.09.2010 11:00 17,7 C 16,3 C 3,4 UV-I 5,9 C 57 % 68 % 98 % 1014,6 hPa 0,0 l/m 5,8 km/h (2 Bft) 0,97 h 0,00 h 9,1 km/h (2 Bft)
20.09.2010 12:00 18,1 C 18,5 C 5,8 UV-I 6,5 C 58 % 63 % 100 % 1014,8 hPa 0,0 l/m 7,9 km/h (2 Bft) 1,00 h 0,00 h 12,7 km/h (3 Bft)
20.09.2010 13:00 19,1 C 20,0 C 8,2 UV-I 6,0 C 56 % 57 % 100 % 1014,9 hPa 0,0 l/m 7,9 km/h (2 Bft) 1,00 h 0,00 h 10,4 km/h (2 Bft)
20.09.2010 14:00 20,3 C 20,4 C 6,1 UV-I 4,2 C 53 % 55 % 99 % 1015,6 hPa 0,0 l/m 7,8 km/h (2 Bft) 1,00 h 0,00 h 11,1 km/h (2 Bft)
20.09.2010 15:00 21,2 C 20,7 C 5,0 UV-I 3,9 C 52 % 55 % 99 % 1016,6 hPa 0,0 l/m 6,8 km/h (2 Bft) 1,00 h 0,00 h 9,0 km/h (2 Bft)
20.09.2010 16:00 22,4 C 21,1 C 4,2 UV-I 4,0 C 49 % 51 % 100 % 1018,1 hPa 0,0 l/m 7,5 km/h (2 Bft) 1,00 h 0,00 h 10,0 km/h (2 Bft)
20.09.2010 17:00 22,6 C 20,5 C 2,3 UV-I 1,9 C 46 % 51 % 54 % 1016,8 hPa 0,0 l/m 5,0 km/h (1 Bft) 0,03 h 0,00 h 6,8 km/h (2 Bft)
20.09.2010 18:00 21,9 C 19,5 C 0,9 UV-I 0,4 C 48 % 55 % 12 % 1015,4 hPa 0,0 l/m 2,0 km/h (1 Bft) 0,00 h 0,00 h 2,9 km/h (1 Bft)
20.09.2010 19:00 21,2 C 18,4 C 0,2 UV-I 0,0 C 49 % 59 % 0 % 1015,3 hPa 0,0 l/m 1,4 km/h (1 Bft) 0,00 h 0,00 h 3,6 km/h (1 Bft)
20.09.2010 20:00 20,6 C 17,7 C 0,1 UV-I 0,0 C 51 % 61 % 0 % 1015,5 hPa 0,0 l/m 0,9 km/h (0 Bft) 0,00 h 0,00 h 2,3 km/h (1 Bft)
20.09.2010 21:00 20,3 C 17,2 C 0,1 UV-I 0,0 C 52 % 65 % 0 % 1016,0 hPa 0,0 l/m 0,2 km/h (0 Bft) 0,00 h 0,00 h 0,4 km/h (0 Bft)
20.09.2010 22:00 20,0 C 16,7 C 0,1 UV-I 0,0 C 53 % 68 % 0 % 1016,5 hPa 0,0 l/m 0,0 km/h (0 Bft) 0,00 h 0,00 h 0,0 km/h (0 Bft)
20.09.2010 23:00 19,9 C 16,2 C 0,1 UV-I 0,0 C 54 % 71 % 0 % 1016,8 hPa 0,0 l/m 0,1 km/h (0 Bft) 0,00 h 0,00 h 0,7 km/h (0 Bft)
21.09.2010 00:00 19,8 C 15,7 C 0,1 UV-I 0,0 C 55 % 72 % 0 % 1016,9 hPa 0,0 l/m 0,2 km/h (0 Bft) 0,00 h 0,00 h 1,0 km/h (0 Bft)
21.09.2010 01:00 19,6 C 14,4 C 0,1 UV-I 0,0 C 56 % 77 % 0 % 1017,0 hPa 0,0 l/m 0,0 km/h (0 Bft) 0,00 h 0,07 h 0,3 km/h (0 Bft)
21.09.2010 02:00 19,5 C 13,3 C 0,1 UV-I 0,0 C 57 % 81 % 0 % 1017,3 hPa 0,0 l/m 0,0 km/h (0 Bft) 0,00 h 0,20 h 0,0 km/h (0 Bft)
21.09.2010 03:00 19,2 C 12,8 C 0,1 UV-I 0,0 C 58 % 84 % 0 % 1017,4 hPa 0,0 l/m 0,3 km/h (0 Bft) 0,00 h 0,17 h 1,1 km/h (0 Bft)
21.09.2010 04:00 19,0 C 12,5 C 0,1 UV-I 0,0 C 59 % 86 % 0 % 1017,5 hPa 0,0 l/m 0,1 km/h (0 Bft) 0,00 h 0,23 h 0,3 km/h (0 Bft)
21.09.2010 05:00 18,8 C 11,8 C 0,1 UV-I 0,0 C 60 % 88 % 0 % 1017,8 hPa 0,0 l/m 0,0 km/h (0 Bft) 0,00 h 0,23 h 0,0 km/h (0 Bft)
21.09.2010 06:00 18,5 C 11,4 C 0,1 UV-I 0,0 C 60 % 90 % 0 % 1018,1 hPa 0,0 l/m 0,0 km/h (0 Bft) 0,00 h 0,20 h 0,0 km/h (0 Bft)
21.09.2010 07:00 18,4 C 11,5 C 0,2 UV-I 0,0 C 61 % 91 % 0 % 1018,6 hPa 0,0 l/m 0,4 km/h (0 Bft) 0,00 h 0,10 h 1,3 km/h (1 Bft)
21.09.2010 08:00 18,4 C 12,3 C 0,5 UV-I 0,3 C 61 % 90 % 9 % 1019,1 hPa 0,0 l/m 0,9 km/h (0 Bft) 0,00 h 0,00 h 2,4 km/h (1 Bft)
21.09.2010 09:00 18,6 C 13,4 C 1,0 UV-I 1,1 C 62 % 88 % 31 % 1019,9 hPa 0,0 l/m 0,6 km/h (0 Bft) 0,00 h 0,00 h 1,7 km/h (1 Bft)
21.09.2010 10:00 19,0 C 15,2 C 1,9 UV-I 2,2 C 62 % 86 % 62 % 1020,6 hPa 0,0 l/m 0,5 km/h (0 Bft) 0,00 h 0,00 h 1,5 km/h (1 Bft)
21.09.2010 11:00 19,5 C 17,0 C 3,3 UV-I 5,0 C 63 % 82 % 99 % 1021,0 hPa 0,0 l/m 1,8 km/h (1 Bft) 1,00 h 0,00 h 4,2 km/h (1 Bft)
21.09.2010 12:00 19,9 C 19,1 C 5,7 UV-I 7,4 C 63 % 76 % 100 % 1021,1 hPa 0,0 l/m 4,1 km/h (1 Bft) 1,00 h 0,00 h 7,7 km/h (2 Bft)
21.09.2010 13:00 20,6 C 20,9 C 7,4 UV-I 6,9 C 62 % 70 % 100 % 1021,3 hPa 0,0 l/m 3,2 km/h (1 Bft) 1,00 h 0,00 h 6,2 km/h (2 Bft)
21.09.2010 14:00 21,5 C 21,1 C 5,7 UV-I 4,8 C 60 % 67 % 98 % 1021,8 hPa 0,0 l/m 1,9 km/h (1 Bft) 0,93 h 0,00 h 4,2 km/h (1 Bft)
21.09.2010 15:00 22,4 C 22,0 C 4,6 UV-I 4,1 C 58 % 63 % 97 % 1023,0 hPa 0,0 l/m 1,4 km/h (1 Bft) 0,97 h 0,00 h 2,2 km/h (1 Bft)
21.09.2010 16:00 23,4 C 23,0 C 4,1 UV-I 4,8 C 55 % 59 % 100 % 1024,0 hPa 0,0 l/m 1,1 km/h (1 Bft) 1,00 h 0,00 h 2,8 km/h (1 Bft)
21.09.2010 17:00 23,9 C 23,0 C 2,6 UV-I 4,2 C 53 % 55 % 100 % 1023,6 hPa 0,0 l/m 2,9 km/h (1 Bft) 1,00 h 0,00 h 4,2 km/h (1 Bft)
21.09.2010 18:00 23,1 C 21,1 C 1,1 UV-I 1,6 C 54 % 63 % 44 % 1021,6 hPa 0,0 l/m 5,6 km/h (1 Bft) 0,57 h 0,00 h 6,7 km/h (2 Bft)
21.09.2010 19:00 22,4 C 19,0 C 0,3 UV-I 0,0 C 55 % 72 % 0 % 1021,2 hPa 0,0 l/m 1,0 km/h (0 Bft) 0,00 h 0,00 h 1,3 km/h (1 Bft)
21.09.2010 20:00 21,8 C 16,8 C 0,0 UV-I 0,0 C 57 % 80 % 0 % 1021,2 hPa 0,0 l/m 0,0 km/h (0 Bft) 0,00 h 0,07 h 0,0 km/h (0 Bft)
21.09.2010 21:00 21,2 C 15,5 C 0,0 UV-I 0,0 C 59 % 85 % 0 % 1021,2 hPa 0,0 l/m 0,0 km/h (0 Bft) 0,00 h 0,13 h 0,0 km/h (0 Bft)
21.09.2010 22:00 20,8 C 14,8 C 0,0 UV-I 0,0 C 61 % 88 % 0 % 1021,5 hPa 0,0 l/m 0,0 km/h (0 Bft) 0,00 h 0,23 h 0,0 km/h (0 Bft)
21.09.2010 23:00 20,6 C 14,0 C 0,0 UV-I 0,0 C 62 % 89 % 0 % 1021,5 hPa 0,0 l/m 0,0 km/h (0 Bft) 0,00 h 0,27 h 0,0 km/h (0 Bft)
22.09.2010 00:00 20,3 C 13,0 C 0,1 UV-I 0,0 C 62 % 90 % 0 % 1021,4 hPa 0,0 l/m 0,0 km/h (0 Bft) 0,00 h 0,30 h 0,0 km/h (0 Bft)
22.09.2010 01:00 20,0 C 12,0 C 0,1 UV-I 0,0 C 61 % 91 % 0 % 1021,2 hPa 0,0 l/m 0,0 km/h (0 Bft) 0,00 h 0,33 h 0,0 km/h (0 Bft)
22.09.2010 02:00 19,7 C 11,1 C 0,1 UV-I 0,0 C 61 % 92 % 0 % 1021,0 hPa 0,0 l/m 0,0 km/h (0 Bft) 0,00 h 0,50 h 0,0 km/h (0 Bft)
22.09.2010 03:00 19,5 C 10,8 C 0,1 UV-I 0,0 C 61 % 93 % 0 % 1020,8 hPa 0,0 l/m 0,1 km/h (0 Bft) 0,00 h 0,37 h 0,0 km/h (0 Bft)
22.09.2010 04:00 19,3 C 11,3 C 0,1 UV-I 0,0 C 62 % 94 % 0 % 1020,5 hPa 0,0 l/m 0,0 km/h (0 Bft) 0,00 h 0,37 h 0,0 km/h (0 Bft)
22.09.2010 05:00 19,2 C 10,7 C 0,0 UV-I 0,0 C 61 % 93 % 0 % 1020,3 hPa 0,0 l/m 0,0 km/h (0 Bft) 0,00 h 0,37 h 0,0 km/h (0 Bft)
22.09.2010 06:00 19,0 C 10,4 C 0,1 UV-I 0,0 C 61 % 93 % 0 % 1020,1 hPa 0,0 l/m 0,4 km/h (0 Bft) 0,00 h 0,43 h 1,5 km/h (1 Bft)
22.09.2010 07:00 18,8 C 10,5 C 0,1 UV-I 0,0 C 61 % 94 % 0 % 1019,9 hPa 0,0 l/m 0,1 km/h (0 Bft) 0,00 h 0,40 h 0,6 km/h (0 Bft)
22.09.2010 08:00 18,7 C 11,1 C 0,5 UV-I 1,6 C 61 % 94 % 42 % 1019,9 hPa 0,0 l/m 2,7 km/h (1 Bft) 0,43 h 0,07 h 4,4 km/h (1 Bft)
22.09.2010 09:00 18,8 C 13,0 C 1,3 UV-I 5,2 C 62 % 93 % 100 % 1020,0 hPa 0,0 l/m 6,5 km/h (2 Bft) 1,00 h 0,10 h 9,6 km/h (2 Bft)
22.09.2010 10:00 19,0 C 15,5 C 3,5 UV-I 6,4 C 62 % 87 % 100 % 1020,1 hPa 0,0 l/m 5,8 km/h (2 Bft) 1,00 h 0,00 h 7,3 km/h (2 Bft)
22.09.2010 11:00 19,2 C 18,0 C 3,8 UV-I 7,2 C 63 % 79 % 100 % 1020,2 hPa 0,0 l/m 3,6 km/h (1 Bft) 1,00 h 0,00 h 6,0 km/h (2 Bft)
22.09.2010 12:00 19,7 C 20,4 C 5,5 UV-I 7,0 C 64 % 70 % 100 % 1020,0 hPa 0,0 l/m 3,9 km/h (1 Bft) 1,00 h 0,00 h 7,0 km/h (2 Bft)
22.09.2010 13:00 20,7 C 22,7 C 7,9 UV-I 6,3 C 61 % 61 % 100 % 1019,8 hPa 0,0 l/m 4,3 km/h (1 Bft) 1,00 h 0,00 h 6,2 km/h (2 Bft)
22.09.2010 14:00 22,0 C 24,1 C 7,9 UV-I 5,7 C 59 % 56 % 100 % 1020,2 hPa 0,0 l/m 5,1 km/h (1 Bft) 1,00 h 0,00 h 8,1 km/h (2 Bft)
22.09.2010 15:00 23,5 C 25,2 C 6,5 UV-I 5,5 C 55 % 51 % 100 % 1022,3 hPa 0,0 l/m 4,2 km/h (1 Bft) 1,00 h 0,00 h 6,5 km/h (2 Bft)
22.09.2010 16:00 24,9 C 25,9 C 4,1 UV-I 4,9 C 51 % 48 % 100 % 1022,5 hPa 0,0 l/m 2,3 km/h (1 Bft) 1,00 h 0,00 h 5,0 km/h (1 Bft)
22.09.2010 17:00 24,9 C 25,5 C 2,4 UV-I 3,1 C 50 % 50 % 83 % 1020,3 hPa 0,0 l/m 2,8 km/h (1 Bft) 0,77 h 0,00 h 4,4 km/h (1 Bft)
22.09.2010 18:00 24,0 C 24,3 C 1,1 UV-I 0,9 C 52 % 56 % 27 % 1018,4 hPa 0,0 l/m 0,9 km/h (0 Bft) 0,03 h 0,00 h 1,2 km/h (1 Bft)
22.09.2010 19:00 23,3 C 22,1 C 0,3 UV-I 0,0 C 55 % 65 % 0 % 1017,5 hPa 0,0 l/m 0,0 km/h (0 Bft) 0,00 h 0,00 h 0,0 km/h (0 Bft)
22.09.2010 20:00 22,6 C 18,9 C 0,1 UV-I 0,0 C 58 % 76 % 0 % 1017,1 hPa 0,0 l/m 0,0 km/h (0 Bft) 0,00 h 0,23 h 0,0 km/h (0 Bft)
22.09.2010 21:00 22,0 C 16,6 C 0,1 UV-I 0,0 C 61 % 84 % 0 % 1016,9 hPa 0,0 l/m 0,1 km/h (0 Bft) 0,00 h 0,37 h 0,2 km/h (0 Bft)
22.09.2010 22:00 21,6 C 16,0 C 0,1 UV-I 0,0 C 62 % 87 % 0 % 1016,7 hPa 0,0 l/m 0,7 km/h (0 Bft) 0,00 h 0,20 h 1,8 km/h (1 Bft)
22.09.2010 23:00 21,3 C 16,0 C 0,1 UV-I 0,0 C 62 % 85 % 0 % 1016,7 hPa 0,0 l/m 0,1 km/h (0 Bft) 0,00 h 0,33 h 0,3 km/h (0 Bft)
23.09.2010 00:00 21,1 C 15,2 C 0,1 UV-I 0,0 C 62 % 85 % 0 % 1016,1 hPa 0,0 l/m 0,0 km/h (0 Bft) 0,00 h 0,40 h 0,0 km/h (0 Bft)
23.09.2010 01:00 20,8 C 14,2 C 0,1 UV-I 0,0 C 61 % 87 % 0 % 1015,6 hPa 0,0 l/m 1,3 km/h (1 Bft) 0,00 h 0,47 h 3,6 km/h (1 Bft)
23.09.2010 02:00 20,5 C 13,4 C 0,1 UV-I 0,0 C 61 % 88 % 0 % 1015,5 hPa 0,0 l/m 1,4 km/h (1 Bft) 0,00 h 0,33 h 4,0 km/h (1 Bft)
23.09.2010 03:00 20,3 C 12,8 C 0,1 UV-I 0,0 C 60 % 90 % 0 % 1015,1 hPa 0,0 l/m 3,4 km/h (1 Bft) 0,00 h 0,53 h 5,5 km/h (1 Bft)
23.09.2010 04:00 20,0 C 12,4 C 0,1 UV-I 0,0 C 60 % 90 % 0 % 1014,5 hPa 0,0 l/m 4,6 km/h (1 Bft) 0,00 h 0,57 h 6,2 km/h (2 Bft)
23.09.2010 05:00 19,7 C 12,0 C 0,1 UV-I 0,0 C 60 % 91 % 0 % 1014,2 hPa 0,0 l/m 2,5 km/h (1 Bft) 0,00 h 0,47 h 4,3 km/h (1 Bft)
23.09.2010 06:00 19,5 C 11,8 C 0,1 UV-I 0,0 C 61 % 92 % 0 % 1013,8 hPa 0,0 l/m 3,7 km/h (1 Bft) 0,00 h 0,50 h 5,4 km/h (1 Bft)
23.09.2010 07:00 19,3 C 11,6 C 0,2 UV-I 0,0 C 61 % 92 % 0 % 1013,3 hPa 0,0 l/m 3,7 km/h (1 Bft) 0,00 h 0,67 h 6,1 km/h (2 Bft)
23.09.2010 08:00 19,2 C 12,1 C 0,8 UV-I 1,4 C 62 % 92 % 40 % 1013,0 hPa 0,0 l/m 3,7 km/h (1 Bft) 0,47 h 0,47 h 5,1 km/h (1 Bft)
23.09.2010 09:00 19,3 C 14,4 C 1,6 UV-I 4,7 C 63 % 91 % 100 % 1012,8 hPa 0,0 l/m 5,9 km/h (2 Bft) 1,00 h 0,17 h 8,9 km/h (2 Bft)
23.09.2010 10:00 19,6 C 17,3 C 3,0 UV-I 5,7 C 64 % 84 % 100 % 1012,5 hPa 0,0 l/m 6,9 km/h (2 Bft) 1,00 h 0,00 h 9,9 km/h (2 Bft)
23.09.2010 11:00 20,0 C 19,7 C 3,6 UV-I 5,3 C 64 % 77 % 100 % 1012,3 hPa 0,0 l/m 4,6 km/h (1 Bft) 1,00 h 0,00 h 6,3 km/h (2 Bft)
23.09.2010 12:00 20,7 C 21,5 C 4,5 UV-I 4,8 C 63 % 71 % 100 % 1011,8 hPa 0,0 l/m 4,4 km/h (1 Bft) 1,00 h 0,00 h 7,1 km/h (2 Bft)
23.09.2010 13:00 21,5 C 23,2 C 5,9 UV-I 4,9 C 61 % 66 % 100 % 1011,2 hPa 0,0 l/m 4,5 km/h (1 Bft) 1,00 h 0,00 h 7,5 km/h (2 Bft)
23.09.2010 14:00 22,4 C 24,4 C 5,6 UV-I 4,2 C 60 % 59 % 100 % 1011,1 hPa 0,0 l/m 4,9 km/h (1 Bft) 1,00 h 0,00 h 7,2 km/h (2 Bft)
23.09.2010 15:00 23,4 C 25,4 C 4,9 UV-I 3,9 C 57 % 52 % 93 % 1011,7 hPa 0,0 l/m 5,0 km/h (1 Bft) 0,80 h 0,00 h 7,5 km/h (2 Bft)
23.09.2010 16:00 24,3 C 25,8 C 3,8 UV-I 4,1 C 54 % 47 % 98 % 1011,5 hPa 0,0 l/m 3,4 km/h (1 Bft) 1,00 h 0,00 h 5,2 km/h (1 Bft)
23.09.2010 17:00 24,6 C 24,8 C 1,9 UV-I 1,4 C 52 % 49 % 38 % 1010,1 hPa 0,0 l/m 2,1 km/h (1 Bft) 0,27 h 0,00 h 3,1 km/h (1 Bft)
23.09.2010 18:00 23,8 C 23,2 C 0,8 UV-I 0,0 C 53 % 57 % 0 % 1007,8 hPa 0,0 l/m 0,1 km/h (0 Bft) 0,00 h 0,00 h 0,0 km/h (0 Bft)
23.09.2010 19:00 23,2 C 21,1 C 0,2 UV-I 0,0 C 55 % 67 % 0 % 1006,9 hPa 0,0 l/m 0,0 km/h (0 Bft) 0,00 h 0,10 h 0,2 km/h (0 Bft)
23.09.2010 20:00 22,7 C 19,4 C 0,1 UV-I 0,0 C 57 % 75 % 0 % 1006,4 hPa 0,0 l/m 0,2 km/h (0 Bft) 0,00 h 0,30 h 0,6 km/h (0 Bft)
23.09.2010 21:00 22,4 C 18,5 C 0,1 UV-I 0,0 C 60 % 81 % 0 % 1006,0 hPa 1,2 l/m 1,0 km/h (0 Bft) 0,00 h 0,70 h 2,5 km/h (1 Bft)
23.09.2010 22:00 22,1 C 17,6 C 0,1 UV-I 0,0 C 62 % 86 % 0 % 1005,5 hPa 0,1 l/m 2,7 km/h (1 Bft) 0,00 h 0,30 h 5,6 km/h (1 Bft)
23.09.2010 23:00 21,9 C 16,7 C 0,1 UV-I 0,0 C 63 % 87 % 0 % 1005,1 hPa 0,8 l/m 3,1 km/h (1 Bft) 0,00 h 0,60 h 5,6 km/h (1 Bft)
24.09.2010 00:00 21,7 C 15,9 C 0,1 UV-I 0,0 C 63 % 90 % 0 % 1004,4 hPa 0,0 l/m 4,7 km/h (1 Bft) 0,00 h 0,27 h 7,6 km/h (2 Bft)
24.09.2010 01:00 21,5 C 15,6 C 0,1 UV-I 0,0 C 64 % 91 % 0 % 1004,0 hPa 0,0 l/m 3,1 km/h (1 Bft) 0,00 h 0,40 h 4,3 km/h (1 Bft)
24.09.2010 02:00 21,3 C 15,3 C 0,1 UV-I 0,0 C 64 % 91 % 0 % 1003,2 hPa 0,0 l/m 1,3 km/h (1 Bft) 0,00 h 0,27 h 1,7 km/h (1 Bft)
24.09.2010 03:00 21,2 C 15,1 C 0,1 UV-I 0,0 C 65 % 92 % 0 % 1002,6 hPa 0,1 l/m 0,5 km/h (0 Bft) 0,00 h 0,23 h 1,4 km/h (1 Bft)
24.09.2010 04:00 21,1 C 15,6 C 0,1 UV-I 0,0 C 65 % 92 % 0 % 1002,1 hPa 0,0 l/m 1,7 km/h (1 Bft) 0,00 h 0,20 h 5,0 km/h (1 Bft)
24.09.2010 05:00 21,0 C 16,1 C 0,0 UV-I 0,0 C 65 % 91 % 0 % 1001,6 hPa 0,0 l/m 0,8 km/h (0 Bft) 0,00 h 0,23 h 1,8 km/h (1 Bft)
24.09.2010 06:00 21,0 C 15,7 C 0,1 UV-I 0,0 C 65 % 88 % 0 % 1001,7 hPa 0,4 l/m 2,6 km/h (1 Bft) 0,00 h 0,90 h 4,6 km/h (1 Bft)
24.09.2010 07:00 20,9 C 14,7 C 0,1 UV-I 0,0 C 65 % 90 % 0 % 1001,5 hPa 0,4 l/m 0,7 km/h (0 Bft) 0,00 h 0,73 h 1,7 km/h (1 Bft)
24.09.2010 08:00 20,7 C 14,4 C 0,3 UV-I 0,0 C 65 % 91 % 0 % 1001,3 hPa 0,1 l/m 0,4 km/h (0 Bft) 0,00 h 0,70 h 1,2 km/h (1 Bft)
24.09.2010 09:00 20,7 C 14,7 C 0,9 UV-I 0,0 C 65 % 92 % 0 % 1001,1 hPa 0,0 l/m 0,1 km/h (0 Bft) 0,00 h 0,30 h 0,2 km/h (0 Bft)
24.09.2010 10:00 20,8 C 15,1 C 1,1 UV-I 0,1 C 66 % 91 % 3 % 1001,1 hPa 0,0 l/m 0,5 km/h (0 Bft) 0,00 h 0,13 h 2,0 km/h (1 Bft)
24.09.2010 11:00 20,9 C 15,6 C 1,6 UV-I 0,5 C 65 % 90 % 16 % 1001,3 hPa 0,0 l/m 1,1 km/h (0 Bft) 0,00 h 0,10 h 3,3 km/h (1 Bft)
24.09.2010 12:00 21,1 C 16,3 C 2,0 UV-I 1,2 C 64 % 87 % 34 % 1000,9 hPa 0,0 l/m 0,5 km/h (0 Bft) 0,00 h 0,00 h 1,6 km/h (1 Bft)
24.09.2010 13:00 21,4 C 16,8 C 2,3 UV-I 1,5 C 63 % 85 % 42 % 1000,6 hPa 0,7 l/m 0,9 km/h (0 Bft) 0,00 h 0,27 h 2,3 km/h (1 Bft)
24.09.2010 14:00 21,5 C 15,9 C 1,7 UV-I 0,1 C 63 % 88 % 4 % 1000,6 hPa 0,2 l/m 0,3 km/h (0 Bft) 0,00 h 0,30 h 0,5 km/h (0 Bft)
24.09.2010 15:00 21,5 C 16,2 C 1,7 UV-I 0,5 C 64 % 89 % 15 % 1000,4 hPa 0,0 l/m 0,1 km/h (0 Bft) 0,00 h 0,03 h 0,6 km/h (0 Bft)
24.09.2010 16:00 21,3 C 16,3 C 1,0 UV-I 0,2 C 64 % 89 % 6 % 1000,3 hPa 0,0 l/m 0,4 km/h (0 Bft) 0,00 h 0,30 h 1,0 km/h (0 Bft)
24.09.2010 17:00 21,2 C 15,9 C 0,9 UV-I 0,0 C 64 % 87 % 0 % 1000,6 hPa 0,0 l/m 0,1 km/h (0 Bft) 0,00 h 0,03 h 0,6 km/h (0 Bft)
24.09.2010 18:00 21,0 C 15,2 C 0,4 UV-I 0,0 C 63 % 87 % 0 % 1000,5 hPa 0,0 l/m 0,1 km/h (0 Bft) 0,00 h 0,23 h 0,7 km/h (0 Bft)
24.09.2010 19:00 20,7 C 14,6 C 0,1 UV-I 0,0 C 63 % 88 % 0 % 1000,8 hPa 0,4 l/m 0,3 km/h (0 Bft) 0,00 h 0,53 h 1,1 km/h (1 Bft)
24.09.2010 20:00 20,4 C 14,2 C 0,1 UV-I 0,0 C 65 % 91 % 0 % 1001,2 hPa 0,0 l/m 0,0 km/h (0 Bft) 0,00 h 0,37 h 0,0 km/h (0 Bft)
24.09.2010 21:00 20,1 C 13,8 C 0,1 UV-I 0,0 C 65 % 92 % 0 % 1001,8 hPa 0,0 l/m 0,0 km/h (0 Bft) 0,00 h 0,30 h 0,2 km/h (0 Bft)
24.09.2010 22:00 19,8 C 13,5 C 0,1 UV-I 0,0 C 65 % 92 % 0 % 1002,2 hPa 0,0 l/m 0,1 km/h (0 Bft) 0,00 h 0,37 h 0,5 km/h (0 Bft)
24.09.2010 23:00 19,7 C 13,2 C 0,1 UV-I 0,0 C 65 % 92 % 0 % 1002,5 hPa 0,0 l/m 0,3 km/h (0 Bft) 0,00 h 0,47 h 0,8 km/h (0 Bft)
25.09.2010 00:00 19,5 C 12,5 C 0,1 UV-I 0,0 C 65 % 93 % 0 % 1002,4 hPa 0,0 l/m 0,1 km/h (0 Bft) 0,00 h 0,33 h 0,4 km/h (0 Bft)
25.09.2010 01:00 19,4 C 12,4 C 0,1 UV-I 0,0 C 65 % 93 % 0 % 1002,8 hPa 0,0 l/m 0,9 km/h (0 Bft) 0,00 h 0,50 h 3,2 km/h (1 Bft)
25.09.2010 02:00 19,4 C 12,8 C 0,1 UV-I 0,0 C 66 % 94 % 0 % 1003,2 hPa 0,0 l/m 3,3 km/h (1 Bft) 0,00 h 0,43 h 6,3 km/h (2 Bft)
25.09.2010 03:00 19,4 C 12,7 C 0,1 UV-I 0,0 C 65 % 92 % 0 % 1003,5 hPa 0,0 l/m 9,4 km/h (2 Bft) 0,00 h 0,50 h 13,6 km/h (3 Bft)
25.09.2010 04:00 19,3 C 11,9 C 0,1 UV-I 0,0 C 64 % 92 % 0 % 1004,0 hPa 0,2 l/m 14,2 km/h (3 Bft) 0,00 h 0,93 h 18,2 km/h (3 Bft)
25.09.2010 05:00 19,1 C 11,1 C 0,1 UV-I 0,0 C 62 % 90 % 0 % 1004,4 hPa 0,0 l/m 10,1 km/h (2 Bft) 0,00 h 0,77 h 13,8 km/h (3 Bft)
25.09.2010 06:00 19,0 C 11,0 C 0,1 UV-I 0,0 C 61 % 89 % 0 % 1004,8 hPa 0,0 l/m 6,6 km/h (2 Bft) 0,00 h 0,77 h 10,5 km/h (2 Bft)
25.09.2010 07:00 18,8 C 10,8 C 0,1 UV-I 0,0 C 60 % 86 % 0 % 1005,4 hPa 0,0 l/m 4,5 km/h (1 Bft) 0,00 h 0,73 h 7,5 km/h (2 Bft)
25.09.2010 08:00 18,7 C 10,7 C 0,5 UV-I 0,0 C 58 % 86 % 0 % 1006,0 hPa 0,0 l/m 1,9 km/h (1 Bft) 0,00 h 0,47 h 3,7 km/h (1 Bft)
25.09.2010 09:00 18,7 C 11,2 C 1,4 UV-I 3,1 C 57 % 82 % 60 % 1006,2 hPa 0,0 l/m 4,5 km/h (1 Bft) 0,53 h 0,57 h 8,3 km/h (2 Bft)
25.09.2010 10:00 18,8 C 12,5 C 2,8 UV-I 6,4 C 57 % 76 % 100 % 1006,2 hPa 0,0 l/m 7,6 km/h (2 Bft) 1,00 h 0,10 h 12,2 km/h (3 Bft)
25.09.2010 11:00 18,9 C 13,6 C 3,6 UV-I 5,9 C 56 % 70 % 100 % 1006,8 hPa 0,0 l/m 8,4 km/h (2 Bft) 0,83 h 0,00 h 12,2 km/h (2 Bft)
25.09.2010 12:00 19,9 C 14,6 C 4,7 UV-I 5,4 C 52 % 63 % 100 % 1007,3 hPa 0,0 l/m 6,4 km/h (2 Bft) 0,72 h 0,00 h 10,4 km/h (2 Bft)
25.09.2010 13:00 20,7 C 15,4 C 6,3 UV-I 5,4 C 50 % 60 % 100 % 1007,3 hPa 0,0 l/m 9,2 km/h (2 Bft) 1,00 h 0,00 h 12,3 km/h (3 Bft)
25.09.2010 14:00 21,8 C 16,4 C 6,8 UV-I 5,6 C 47 % 57 % 100 % 1008,0 hPa 0,0 l/m 7,2 km/h (2 Bft) 1,00 h 0,00 h 10,7 km/h (2 Bft)
25.09.2010 15:00 22,6 C 15,8 C 4,7 UV-I 3,7 C 44 % 59 % 93 % 1009,5 hPa 0,0 l/m 8,5 km/h (2 Bft) 0,90 h 0,00 h 10,8 km/h (2 Bft)
25.09.2010 16:00 22,6 C 14,1 C 1,7 UV-I 1,3 C 45 % 67 % 37 % 1008,2 hPa 0,0 l/m 5,8 km/h (2 Bft) 0,03 h 0,30 h 8,4 km/h (2 Bft)
25.09.2010 17:00 22,2 C 14,8 C 1,7 UV-I 2,5 C 46 % 64 % 68 % 1007,5 hPa 0,0 l/m 4,4 km/h (1 Bft) 0,57 h 0,13 h 8,8 km/h (2 Bft)
25.09.2010 18:00 21,5 C 14,4 C 0,9 UV-I 1,4 C 45 % 63 % 39 % 1006,6 hPa 0,0 l/m 4,7 km/h (1 Bft) 0,63 h 0,17 h 6,4 km/h (2 Bft)
25.09.2010 19:00 20,7 C 12,2 C 0,2 UV-I 0,0 C 45 % 69 % 0 % 1006,3 hPa 0,0 l/m 3,0 km/h (1 Bft) 0,00 h 0,87 h 5,7 km/h (1 Bft)
25.09.2010 20:00 19,9 C 10,9 C 0,1 UV-I 0,0 C 47 % 75 % 0 % 1006,4 hPa 0,0 l/m 2,8 km/h (1 Bft) 0,00 h 0,90 h 5,2 km/h (1 Bft)
25.09.2010 21:00 19,3 C 10,2 C 0,1 UV-I 0,0 C 49 % 80 % 0 % 1006,8 hPa 0,0 l/m 1,1 km/h (0 Bft) 0,00 h 0,83 h 2,4 km/h (1 Bft)
25.09.2010 22:00 18,9 C 9,6 C 0,1 UV-I 0,0 C 50 % 83 % 0 % 1006,5 hPa 0,0 l/m 1,3 km/h (1 Bft) 0,00 h 1,00 h 3,1 km/h (1 Bft)
25.09.2010 23:00 18,4 C 8,8 C 0,1 UV-I 0,0 C 51 % 87 % 0 % 1006,2 hPa 0,0 l/m 0,5 km/h (0 Bft) 0,00 h 1,00 h 2,1 km/h (1 Bft)
26.09.2010 00:00 18,0 C 8,2 C 0,1 UV-I 0,0 C 53 % 89 % 0 % 1005,8 hPa 0,0 l/m 0,5 km/h (0 Bft) 0,00 h 0,93 h 3,1 km/h (1 Bft)
26.09.2010 01:00 17,6 C 8,0 C 0,1 UV-I 0,0 C 54 % 91 % 0 % 1005,7 hPa 0,0 l/m 0,5 km/h (0 Bft) 0,00 h 1,00 h 2,2 km/h (1 Bft)
26.09.2010 02:00 17,3 C 8,3 C 0,1 UV-I 0,0 C 55 % 92 % 0 % 1005,5 hPa 0,0 l/m 1,0 km/h (0 Bft) 0,00 h 1,00 h 2,2 km/h (1 Bft)
26.09.2010 03:00 17,2 C 9,1 C 0,1 UV-I 0,0 C 57 % 93 % 0 % 1005,3 hPa 0,0 l/m 0,7 km/h (0 Bft) 0,00 h 0,93 h 2,0 km/h (1 Bft)
26.09.2010 04:00 17,2 C 9,5 C 0,1 UV-I 0,0 C 57 % 92 % 0 % 1004,9 hPa 0,0 l/m 0,3 km/h (0 Bft) 0,00 h 0,93 h 0,8 km/h (0 Bft)
26.09.2010 05:00 17,4 C 9,8 C 0,1 UV-I 0,0 C 58 % 91 % 0 % 1004,8 hPa 0,0 l/m 0,2 km/h (0 Bft) 0,00 h 0,83 h 1,0 km/h (0 Bft)
26.09.2010 06:00 17,5 C 10,0 C 0,1 UV-I 0,0 C 58 % 91 % 0 % 1004,6 hPa 0,0 l/m 0,7 km/h (0 Bft) 0,00 h 0,77 h 0,6 km/h (0 Bft)
26.09.2010 07:00 17,5 C 10,0 C 0,1 UV-I 0,0 C 58 % 91 % 0 % 1004,9 hPa 0,0 l/m 1,1 km/h (1 Bft) 0,00 h 0,87 h 2,6 km/h (1 Bft)
26.09.2010 08:00 17,5 C 10,0 C 0,4 UV-I 0,0 C 59 % 92 % 1 % 1005,0 hPa 0,0 l/m 1,5 km/h (1 Bft) 0,00 h 0,77 h 2,5 km/h (1 Bft)
26.09.2010 09:00 17,6 C 10,7 C 1,2 UV-I 0,8 C 59 % 91 % 24 % 1005,1 hPa 0,0 l/m 2,9 km/h (1 Bft) 0,00 h 0,63 h 5,7 km/h (1 Bft)
26.09.2010 10:00 17,8 C 11,7 C 1,8 UV-I 1,3 C 59 % 87 % 38 % 1005,7 hPa 0,0 l/m 3,6 km/h (1 Bft) 0,00 h 0,40 h 6,5 km/h (2 Bft)
26.09.2010 11:00 18,2 C 12,8 C 3,1 UV-I 3,0 C 58 % 82 % 86 % 1006,0 hPa 0,0 l/m 4,3 km/h (1 Bft) 0,80 h 0,00 h 6,7 km/h (2 Bft)
26.09.2010 12:00 18,8 C 13,8 C 4,2 UV-I 4,0 C 56 % 77 % 98 % 1006,4 hPa 0,0 l/m 4,7 km/h (1 Bft) 1,00 h 0,00 h 7,5 km/h (2 Bft)
26.09.2010 13:00 19,8 C 15,2 C 4,5 UV-I 5,1 C 55 % 70 % 97 % 1006,7 hPa 0,0 l/m 5,7 km/h (1 Bft) 0,93 h 0,00 h 7,2 km/h (2 Bft)
26.09.2010 14:00 20,6 C 15,2 C 1,6 UV-I 2,1 C 53 % 68 % 61 % 1007,3 hPa 0,0 l/m 4,9 km/h (1 Bft) 0,00 h 0,00 h 4,7 km/h (1 Bft)
26.09.2010 15:00 20,5 C 14,8 C 0,1 UV-I 0,6 C 52 % 69 % 17 % 1006,9 hPa 0,0 l/m 1,8 km/h (1 Bft) 0,00 h 0,00 h 2,4 km/h (1 Bft)
26.09.2010 16:00 20,0 C 14,4 C 0,0 UV-I 0,2 C 52 % 72 % 5 % 1006,7 hPa 0,0 l/m 1,7 km/h (1 Bft) 0,00 h 0,00 h 2,2 km/h (1 Bft)
26.09.2010 17:00 19,7 C 14,2 C 0,0 UV-I 0,2 C 53 % 72 % 7 % 1006,9 hPa 0,0 l/m 0,7 km/h (0 Bft) 0,00 h 0,00 h 1,1 km/h (1 Bft)
26.09.2010 18:00 19,5 C 13,6 C 0,0 UV-I 0,0 C 54 % 75 % 0 % 1006,9 hPa 0,0 l/m 1,9 km/h (1 Bft) 0,00 h 0,07 h 2,3 km/h (1 Bft)
26.09.2010 19:00 19,2 C 12,9 C 0,0 UV-I 0,0 C 55 % 79 % 0 % 1007,2 hPa 0,0 l/m 0,0 km/h (0 Bft) 0,00 h 0,13 h 0,0 km/h (0 Bft)
26.09.2010 20:00 19,1 C 12,2 C 0,0 UV-I 0,0 C 56 % 83 % 0 % 1008,0 hPa 0,0 l/m 0,0 km/h (0 Bft) 0,00 h 0,17 h 0,0 km/h (0 Bft)
26.09.2010 21:00 19,0 C 10,9 C 0,0 UV-I 0,0 C 57 % 85 % 0 % 1008,3 hPa 0,0 l/m 0,1 km/h (0 Bft) 0,00 h 0,13 h 0,2 km/h (0 Bft)
26.09.2010 22:00 18,8 C 9,7 C 0,0 UV-I 0,0 C 57 % 88 % 0 % 1008,7 hPa 0,0 l/m 0,0 km/h (0 Bft) 0,00 h 0,17 h 0,0 km/h (0 Bft)
26.09.2010 23:00 18,6 C 8,7 C 0,0 UV-I 0,0 C 56 % 90 % 0 % 1008,7 hPa 0,0 l/m 0,0 km/h (0 Bft) 0,00 h 0,07 h 0,0 km/h (0 Bft)
Min-Datum _ 20.09.10 26.09.10 20.09.10 20.09.10 25.09.10 23.09.10 20.09.10 24.09.10 - 20.09.10 - - 20.09.10
_ Min-Zeit 07:38 02:02 04:24 00:00 15:24 16:52 00:00 16:06 - 02:06 - - 00:06
Minimum _ 17,0 C 7,9 C 0,0 UV-I 0,0 C 44 % 45 % 0 % 1000,2 hPa - 0,0 km/h (0 Bft) - - 0,0 km/h (0 Bft)
Max-Datum _ 22.09.10 22.09.10 20.09.10 21.09.10 24.09.10 22.09.10 20.09.10 21.09.10 23.09.10 25.09.10 20.09.10 20.09.10 25.09.10
_ Max-Zeit 16:48 16:08 13:44 13:48 05:44 09:04 10:22 16:46 21:34 05:08 10:10 03:12 04:24
Maximum _ 25,2 C 26,3 C 9,1 UV-I 8,5 C 66 % 95 % 100 % 1025,4 hPa 1,2 l/m 16,9 km/h
SW (3 Bft)
0,03 h 0,03 h 34,1 km/h
W-SW (5 Bft)
Durchschnitt _ 20,1 C 15,1 C 1,4 UV-I 1,4 C 58 % 79 % 28 % 1011,5 hPa #4,5 l/m 2,4 km/h (1 Bft) #42:01 h #42:32 h 3,9 km/h (1 Bft)
© 2012 W. Hausmann